Flight Track Log - Related Links

Times and Time Zones

All times are in EDT time to prevent confusion due to time zone crossing. See the AWI3785 flight status page for this flight to view local times or setup timezone preferences in your user account.

Time Position Orientation Groundspeed Altitude Reporting Facility
EDT Latitude Longitude Course Direction KTS MPH feet Rate Location/Type
Mon 07:56:51 AM 43.6500 -79.6167 119° Southeast 160 184 1,300  Level Toronto Center
Mon 07:57:51 AM 43.6167 -79.6500 216° Southwest 200 230 4,300 2,900 Climbing Toronto Center
Mon 07:58:51 AM 43.5500 -79.6333 170° South 250 288 7,100 2,700 Climbing Toronto Center
Mon 07:59:00 AM 43.5482 -79.3276 115° Southeast  Level FlightAware Approximate
Mon 07:59:51 AM 43.4833 -79.5667 144° Southeast 300 345 9,700  Level Toronto Center
Mon 08:00:00 AM 43.5130 -79.2222 115° Southeast  Level FlightAware Approximate
Mon 08:00:51 AM 43.4667 -79.4500 101° East 310 357 12,100  Level Toronto Center
Mon 08:01:00 AM 43.4833 -79.1152 90° East  Level FlightAware Approximate
Mon 08:01:51 AM 43.4667 -79.3167 90° East 350 403 14,800  Level Toronto Center
Mon 08:02:00 AM 43.4480 -79.0118 119° Southeast  Level FlightAware Approximate
Mon 08:02:51 AM 43.4500 -79.1667 99° East 360 414 17,200  Level Toronto Center
Mon 08:03:51 AM 43.4500 -79.0333 90° East 360 414 19,400 2,000 Climbing Toronto Center
Mon 08:04:51 AM 43.4167 -78.9167 111° Southeast 370 426 21,200 1,850 Climbing Toronto Center
Mon 08:05:51 AM 43.3667 -78.7833 117° Southeast 380 437 23,100 1,650 Climbing Toronto Center
Mon 08:06:51 AM 43.3000 -78.6667 128° Southeast 380 437 24,500 1,300 Climbing Toronto Center
Mon 08:07:51 AM 43.2500 -78.5333 117° Southeast 390 449 25,700 952 Climbing Toronto Center
Mon 08:08:57 AM 43.1864 -78.4364 132° Southeast 390 449 26,500 619 Climbing Cleveland Center
Mon 08:09:57 AM 43.1236 -78.3047 123° Southeast 402 463 27,000 250 Climbing Cleveland Center
Mon 08:10:57 AM 43.0583 -78.1708 124° Southeast 413 475 27,000  Level Cleveland Center
Mon 08:11:57 AM 42.9828 -78.0517 131° Southeast 413 475 27,000  Level Cleveland Center
Mon 08:12:57 AM 42.8783 -78.0389 175° South 374 430 27,000  Level Cleveland Center
Mon 08:13:57 AM 42.7700 -78.0433 182° South 364 419 27,000 -700 Level Cleveland Center
Mon 08:14:57 AM 42.6617 -78.0506 183° South 381 438 25,600 -690 Descending Cleveland Center
Mon 08:16:51 AM 42.4333 -78.0500 180° South 370 426 25,000 -207 Descending Toronto Center
Mon 08:17:51 AM 42.3333 -78.0500 180° South 370 426 25,000  Level Toronto Center
Mon 08:18:51 AM 42.2333 -78.0500 180° South 370 426 25,000  Level Toronto Center
Mon 08:19:51 AM 42.1333 -78.0667 187° South 370 426 25,000  Level Toronto Center
Mon 08:20:51 AM 42.0333 -78.0667 180° South 370 426 25,000  Level Toronto Center
Mon 08:21:57 AM 41.9414 -78.0986 194° South 372 428 25,000  Level Cleveland Center
Mon 08:22:57 AM 41.8394 -78.1053 183° South 372 428 25,000  Level Cleveland Center
Mon 08:23:57 AM 41.7333 -78.1122 183° South 372 428 25,000  Level Cleveland Center
Mon 08:24:43 AM 41.6586 -78.1178 183° South 376 433 25,000  Level New York Center
Mon 08:25:43 AM 41.5542 -78.1231 182° South 376 433 25,000  Level New York Center
Mon 08:26:41 AM 41.4517 -78.1311 183° South 376 433 25,000  Level New York Center
Mon 08:27:42 AM 41.3325 -78.1375 182° South 385 443 25,000  Level New York Center
Mon 08:28:42 AM 41.2300 -78.1431 182° South 385 443 25,000  Level New York Center
Mon 08:29:43 AM 41.1242 -78.1011 163° South 385 443 25,000  Level New York Center
Mon 08:30:43 AM 41.0192 -78.0458 158° South 390 449 25,000  Level New York Center
Mon 08:31:43 AM 40.9161 -77.9936 159° South 390 449 25,000 -712 Level New York Center
Mon 08:32:41 AM 40.8264 -77.8936 140° Southeast 404 465 23,600 -1,450 Descending New York Center
Mon 08:33:43 AM 40.7364 -77.7911 139° Southeast 418 481 22,100 -1,500 Descending New York Center
Mon 08:34:41 AM 40.6525 -77.6947 139° Southeast 418 481 20,600 -1,525 Descending New York Center
Mon 08:35:41 AM 40.5722 -77.6047 140° Southeast 403 464 19,100 -1,300 Descending New York Center
Mon 08:36:41 AM 40.4900 -77.5147 140° Southeast 394 453 18,000 -545 Descending New York Center
Mon 08:37:42 AM 40.4194 -77.4342 139° Southeast 380 437 18,000  Level New York Center
Mon 08:38:42 AM 40.3311 -77.3358 140° Southeast 380 437 18,000  Level New York Center
Mon 08:39:43 AM 40.2683 -77.2644 139° Southeast 385 443 18,000  Level New York Center
Mon 08:40:43 AM 40.1819 -77.1667 139° Southeast 359 413 18,000  Level New York Center
Mon 08:41:43 AM 40.1211 -77.0986 139° Southeast 335 386 18,000  Level New York Center
Mon 08:42:41 AM 40.0461 -77.0158 140° Southeast 335 386 18,000  Level New York Center
Mon 08:43:41 AM 39.9753 -76.9364 139° Southeast 335 386 18,000 -149 Level New York Center
Mon 08:44:42 AM 39.9064 -76.8572 139° Southeast 340 391 17,700 -934 Descending New York Center
Mon 08:45:43 AM 39.8483 -76.7683 130° Southeast 335 386 16,100 -1,488 Descending New York Center
Mon 08:46:43 AM 39.7886 -76.6742 130° Southeast 330 380 14,700 -1,463 Descending New York Center
Mon 08:47:05 AM 39.7667 -76.6333 125° Southeast 330 380 14,100 -1,537 Descending Potomac TRACON
Mon 08:48:05 AM 39.7167 -76.5500 128° Southeast 319 367 12,600 -1,105 Descending Potomac TRACON
Mon 08:48:59 AM 39.6500 -76.5167 159° South 280 322 12,000 -313 Descending Potomac TRACON
Mon 08:50:00 AM 39.5833 -76.5333 191° South 259 298 12,000  Level Potomac TRACON
Mon 08:51:00 AM 39.5167 -76.5500 191° South 263 303 12,000  Level Potomac TRACON
Mon 08:52:00 AM 39.4333 -76.5833 197° South 262 302 12,000  Level Potomac TRACON
Mon 08:52:54 AM 39.3667 -76.6000 191° South 263 303 12,000 -684 Level Potomac TRACON
Mon 08:53:54 AM 39.3000 -76.6167 191° South 262 302 10,700 -1,053 Descending Potomac TRACON
Mon 08:54:48 AM 39.2333 -76.6333 191° South 257 296 10,000 -368 Descending Potomac TRACON
Mon 08:55:48 AM 39.1667 -76.6667 201° Southwest 263 303 10,000  Level Potomac TRACON
Mon 08:56:42 AM 39.1333 -76.7167 229° Southwest 225 259 10,000  Level Potomac TRACON
Mon 08:57:42 AM 39.0833 -76.7667 218° Southwest 223 257 10,000 -700 Level Potomac TRACON
Mon 08:58:42 AM 39.0333 -76.8333 226° Southwest 218 251 8,600 -1,450 Descending Potomac TRACON
Mon 08:59:42 AM 38.9833 -76.8833 218° Southwest 229 264 7,100 -1,357 Descending Potomac TRACON
Mon 09:00:37 AM 38.9500 -76.9333 229° Southwest 225 259 6,000 -574 Descending Potomac TRACON
Mon 09:01:37 AM 38.8833 -76.9333 180° South 244 281 6,000 -53 Level Potomac TRACON
Mon 09:02:31 AM 38.8333 -76.9333 180° South 211 243 5,900 -835 Descending Potomac TRACON
Mon 09:03:32 AM 38.7833 -76.9167 165° South 190 219 4,400 -950 Descending Potomac TRACON
Mon 09:04:31 AM 38.7333 -76.9167 180° South 185 213 4,000 -211 Descending Potomac TRACON
Mon 09:05:26 AM 38.6833 -76.9167 180° South 181 208 4,000  Level Potomac TRACON
Mon 09:06:26 AM 38.6333 -76.9167 180° South 179 206 4,000  Level Potomac TRACON
Mon 09:07:26 AM 38.5833 -76.9167 180° South 176 203 4,000  Level Potomac TRACON
Mon 09:08:26 AM 38.5667 -76.9667 247° West 165 190 4,000  Level Potomac TRACON

Login

Don't have an account? Register now (free) for customized features, flight alerts, and more!